Time;durP1;ratioP1;P1;durP2;ratioP2;P2;SDS_P1;SDS_P2;PMS_P1;PMS_P2;Temp;Humidity;BMP_temperature;BMP_pressure;BME280_temperature;BME280_humidity;BME280_pressure;Samples;Min_cycle;Max_cycle;Signal;HPM_P1;HPM_P2
2022/06/28 00:01:50;;;;;;;2.70;1.20;;;17.80;83.40;;;;;;5034965;28;20382;-79
2022/06/28 00:04:16;;;;;;;1.00;0.90;;;17.70;83.00;;;;;;5034884;28;20036;-81
2022/06/28 00:06:41;;;;;;;1.80;1.15;;;17.70;83.40;;;;;;5034931;28;20097;-80
2022/06/28 00:09:07;;;;;;;1.42;0.98;;;17.60;83.50;;;;;;5034883;28;20045;-81
2022/06/28 00:11:32;;;;;;;0.93;0.93;;;17.60;83.70;;;;;;5017288;28;20120;-79
2022/06/28 00:13:58;;;;;;;1.00;0.98;;;17.50;83.90;;;;;;5034749;28;20470;-80
2022/06/28 00:16:24;;;;;;;1.38;1.27;;;17.40;83.90;;;;;;5034779;28;20534;-80
2022/06/28 00:18:51;;;;;;;2.60;1.20;;;17.50;84.40;;;;;;5034752;28;20026;-81
2022/06/28 00:21:17;;;;;;;1.25;1.00;;;17.50;84.40;;;;;;5034683;28;20019;-81
2022/06/28 00:23:42;;;;;;;3.60;1.20;;;17.50;84.50;;;;;;5034577;28;20036;-81
2022/06/28 00:26:09;;;;;;;2.72;1.20;;;17.50;84.40;;;;;;5034610;28;20030;-81
2022/06/28 00:28:35;;;;;;;2.67;1.10;;;17.50;85.00;;;;;;5016732;28;20030;-81
2022/06/28 00:31:02;;;;;;;3.05;1.35;;;17.50;84.40;;;;;;5034495;28;20508;-80
2022/06/28 00:33:28;;;;;;;4.57;1.50;;;17.50;84.50;;;;;;5034475;28;20034;-81
2022/06/28 00:35:53;;;;;;;1.02;1.02;;;17.40;84.50;;;;;;5034544;28;20037;-81
2022/06/28 00:38:19;;;;;;;1.33;1.23;;;17.40;84.60;;;;;;5034259;28;20033;-81
2022/06/28 00:40:50;;;;;;;0.80;0.80;;;17.40;84.80;;;;;;5035164;28;20075;-81
2022/06/28 00:43:17;;;;;;;2.10;0.90;;;17.50;85.00;;;;;;5038620;28;20036;-80
2022/06/28 00:45:43;;;;;;;2.38;1.10;;;17.50;84.80;;;;;;5016343;28;20429;-81
2022/06/28 00:48:14;;;;;;;2.03;0.93;;;17.50;85.20;;;;;;5034807;28;20061;-82
2022/06/28 00:50:40;;;;;;;3.95;1.38;;;17.50;85.80;;;;;;5035504;28;20116;-80
2022/06/28 00:53:09;;;;;;;1.40;1.30;;;17.50;84.80;;;;;;5036055;28;20553;-80
2022/06/28 00:55:35;;;;;;;1.48;1.25;;;17.40;84.50;;;;;;5016238;28;20417;-80
2022/06/28 00:58:01;;;;;;;5.07;1.40;;;17.40;84.70;;;;;;5033976;28;20026;-81
2022/06/28 01:00:28;;;;;;;1.30;1.20;;;17.30;84.40;;;;;;5033969;28;20025;-79
2022/06/28 01:02:54;;;;;;;2.47;1.42;;;17.20;84.60;;;;;;5033783;28;20092;-75
2022/06/28 01:05:20;;;;;;;1.10;1.00;;;17.20;85.20;;;;;;5033760;28;20494;-78
2022/06/28 01:07:46;;;;;;;1.73;1.30;;;17.20;85.30;;;;;;5033811;28;20502;-77
2022/06/28 01:10:12;;;;;;;2.90;1.10;;;17.20;85.20;;;;;;5015954;28;20093;-80
2022/06/28 01:12:37;;;;;;;2.47;1.17;;;17.30;85.50;;;;;;5033831;28;20037;-81
2022/06/28 01:15:03;;;;;;;1.05;1.00;;;17.20;85.10;;;;;;5033199;28;20108;-80
2022/06/28 01:17:29;;;;;;;2.55;1.10;;;17.30;85.30;;;;;;5033688;28;20568;-78
2022/06/28 01:19:54;;;;;;;2.05;1.33;;;17.40;84.90;;;;;;5033646;28;20044;-81
2022/06/28 01:22:21;;;;;;;3.33;1.02;;;17.40;84.50;;;;;;5033521;28;20028;-82
2022/06/28 01:24:46;;;;;;;2.63;1.50;;;17.30;84.50;;;;;;5033392;28;20036;-82
2022/06/28 01:27:12;;;;;;;1.33;1.10;;;17.30;84.70;;;;;;5033300;28;20022;-82
2022/06/28 01:29:38;;;;;;;5.55;1.50;;;17.20;85.10;;;;;;5033335;28;20064;-81
2022/06/28 01:32:04;;;;;;;2.38;1.30;;;17.10;85.40;;;;;;5038222;28;20026;-81
2022/06/28 01:34:30;;;;;;;1.42;1.15;;;17.10;85.40;;;;;;5033526;28;20029;-81
2022/06/28 01:36:55;;;;;;;2.35;1.23;;;17.10;86.40;;;;;;5033220;28;20033;-82
2022/06/28 01:39:21;;;;;;;3.65;1.20;;;17.20;85.60;;;;;;5015636;28;20064;-80
2022/06/28 01:41:50;;;;;;;1.40;1.30;;;17.20;85.20;;;;;;5033417;28;20053;-81
2022/06/28 01:44:15;;;;;;;2.25;1.08;;;17.20;85.10;;;;;;5033041;28;20108;-80
2022/06/28 01:46:42;;;;;;;1.23;1.15;;;17.20;84.80;;;;;;5033048;28;20112;-80
2022/06/28 01:49:08;;;;;;;2.83;0.90;;;17.20;84.70;;;;;;5032857;28;20100;-82
2022/06/28 01:51:34;;;;;;;0.85;0.73;;;17.20;84.70;;;;;;5015323;28;20038;-80
2022/06/28 01:54:00;;;;;;;2.83;0.90;;;17.20;84.90;;;;;;5032970;28;20025;-81
2022/06/28 01:56:26;;;;;;;1.13;0.82;;;17.20;84.70;;;;;;5032936;28;20143;-80
2022/06/28 01:58:51;;;;;;;4.13;1.00;;;17.20;84.30;;;;;;5032907;28;20441;-79
2022/06/28 02:01:17;;;;;;;2.60;1.10;;;17.20;84.30;;;;;;5032822;28;20025;-79
2022/06/28 02:03:43;;;;;;;1.50;1.00;;;17.20;84.50;;;;;;5032833;28;20057;-79
2022/06/28 02:06:09;;;;;;;1.73;1.00;;;17.20;84.70;;;;;;5032739;28;20112;-80
2022/06/28 02:08:35;;;;;;;2.15;0.80;;;17.20;84.80;;;;;;5032827;28;20030;-80
2022/06/28 02:11:03;;;;;;;1.02;0.98;;;17.30;85.70;;;;;;5032758;28;20104;-80
2022/06/28 02:13:29;;;;;;;1.20;1.10;;;17.30;84.90;;;;;;5033239;28;20513;-81
2022/06/28 02:15:55;;;;;;;1.25;0.93;;;17.30;84.80;;;;;;5032766;28;20021;-80
2022/06/28 02:18:20;;;;;;;1.10;1.10;;;17.30;84.80;;;;;;5032777;28;20030;-79
2022/06/28 02:20:46;;;;;;;1.33;1.00;;;17.30;84.90;;;;;;5032812;28;20105;-81
2022/06/28 02:23:11;;;;;;;3.10;1.13;;;17.30;84.90;;;;;;5032660;28;20048;-81
2022/06/28 02:25:37;;;;;;;1.55;1.23;;;17.20;84.90;;;;;;5033456;28;20036;-80
2022/06/28 02:28:03;;;;;;;1.05;0.98;;;17.20;84.90;;;;;;5036765;28;20033;-80
2022/06/28 02:30:28;;;;;;;3.08;1.15;;;17.20;85.10;;;;;;5037517;28;20501;-79
2022/06/28 02:32:54;;;;;;;3.90;1.23;;;17.10;85.40;;;;;;5039856;28;20025;-76
2022/06/28 02:40:48;;;;;;;2.30;0.93;;;17.20;85.50;;;;;;5056009;28;20052;-81
2022/06/28 02:43:14;;;;;;;1.42;1.15;;;17.20;85.60;;;;;;5036825;28;20022;-80
2022/06/28 02:45:42;;;;;;;3.38;1.17;;;17.20;85.70;;;;;;5036268;28;20046;-80
2022/06/28 02:48:08;;;;;;;1.85;1.13;;;17.20;85.70;;;;;;5036417;28;20100;-80
2022/06/28 02:50:34;;;;;;;1.80;1.08;;;17.20;85.80;;;;;;5036049;28;20517;-79
2022/06/28 02:53:00;;;;;;;1.27;0.90;;;17.20;85.50;;;;;;5036318;28;20038;-82
2022/06/28 02:55:27;;;;;;;2.42;1.02;;;17.30;85.50;;;;;;5036430;28;20026;-82
2022/06/28 02:57:52;;;;;;;1.40;1.30;;;17.20;85.10;;;;;;5036471;28;20033;-81
2022/06/28 03:00:19;;;;;;;4.00;1.30;;;17.20;85.20;;;;;;5036309;28;20030;-81
2022/06/28 03:02:47;;;;;;;2.25;1.05;;;17.20;85.00;;;;;;5036278;28;20025;-82
2022/06/28 03:05:15;;;;;;;4.05;1.42;;;17.10;84.80;;;;;;5036049;28;20029;-82
2022/06/28 03:07:42;;;;;;;1.30;1.05;;;17.10;85.00;;;;;;5018277;28;20137;-81
2022/06/28 03:10:09;;;;;;;1.40;1.00;;;17.00;85.20;;;;;;5036048;28;20038;-82
2022/06/28 03:12:34;;;;;;;2.10;1.20;;;16.90;85.50;;;;;;5036073;28;20026;-81
2022/06/28 03:15:00;;;;;;;2.33;1.02;;;16.90;85.60;;;;;;5036035;28;20087;-82
2022/06/28 03:17:26;;;;;;;1.23;1.00;;;16.90;85.90;;;;;;5035975;28;20025;-81
2022/06/28 03:19:51;;;;;;;6.40;1.75;;;16.90;86.00;;;;;;5035864;28;20025;-82
2022/06/28 03:22:17;;;;;;;7.63;1.45;;;16.90;85.90;;;;;;5035856;28;20041;-82
2022/06/28 03:24:43;;;;;;;3.45;1.38;;;16.90;86.10;;;;;;5035778;28;20060;-81
2022/06/28 03:27:08;;;;;;;1.60;1.00;;;16.90;85.60;;;;;;5035869;28;20021;-82
2022/06/28 03:29:34;;;;;;;2.67;1.05;;;16.90;85.50;;;;;;5037916;28;20060;-80
2022/06/28 03:31:59;;;;;;;1.70;1.00;;;16.90;85.50;;;;;;5044696;28;20055;-82
2022/06/28 03:34:25;;;;;;;2.47;1.30;;;16.90;85.50;;;;;;5022951;28;20026;-82
2022/06/28 03:36:51;;;;;;;1.10;1.00;;;16.90;85.40;;;;;;5035147;28;20334;-81
2022/06/28 03:39:17;;;;;;;1.88;1.30;;;16.90;85.40;;;;;;5035571;28;20031;-82
2022/06/28 03:41:43;;;;;;;2.78;1.15;;;16.90;85.40;;;;;;5035689;28;20022;-82
2022/06/28 03:44:08;;;;;;;2.13;1.13;;;16.90;85.50;;;;;;5017517;28;20064;-82
2022/06/28 03:46:34;;;;;;;2.33;1.10;;;16.90;85.50;;;;;;5035268;28;20393;-81
2022/06/28 03:49:00;;;;;;;3.88;1.35;;;16.90;85.50;;;;;;5035909;28;20048;-80
2022/06/28 03:51:25;;;;;;;3.35;1.40;;;16.80;85.70;;;;;;5035823;28;20458;-82
2022/06/28 03:53:51;;;;;;;1.23;1.10;;;16.80;86.00;;;;;;5035659;28;20074;-81
2022/06/28 03:56:16;;;;;;;1.40;1.30;;;16.80;85.90;;;;;;5035749;28;20128;-81
2022/06/28 03:58:42;;;;;;;2.25;1.45;;;16.80;85.90;;;;;;5035176;28;20036;-81
2022/06/28 04:01:08;;;;;;;1.88;1.00;;;16.90;86.00;;;;;;5035057;28;20032;-81
2022/06/28 04:03:34;;;;;;;1.27;1.10;;;16.90;85.90;;;;;;5017275;28;20108;-80
2022/06/28 04:06:00;;;;;;;4.97;1.17;;;16.90;85.90;;;;;;5034812;28;20030;-80
2022/06/28 04:08:26;;;;;;;2.30;1.27;;;16.90;85.90;;;;;;5035127;28;20030;-81
2022/06/28 04:11:13;;;;;;;2.80;1.20;;;16.90;85.80;;;;;;5034849;28;20052;-81
2022/06/28 04:13:37;;;;;;;;;;;16.90;85.70;;;;;;5035140;28;20458;-80
2022/06/28 04:16:03;;;;;;;1.77;1.08;;;16.90;85.70;;;;;;5034698;28;19912;-81
2022/06/28 04:18:29;;;;;;;2.78;1.10;;;17.00;85.40;;;;;;5034799;28;20021;-81
2022/06/28 04:20:55;;;;;;;4.35;1.23;;;17.00;85.20;;;;;;5034586;28;20091;-81
2022/06/28 04:23:20;;;;;;;1.38;1.10;;;17.10;85.30;;;;;;5034514;28;20033;-79
2022/06/28 04:25:46;;;;;;;5.70;1.27;;;17.10;85.20;;;;;;5016685;28;20037;-80
2022/06/28 04:28:11;;;;;;;4.53;1.13;;;17.20;85.00;;;;;;5034508;28;20387;-81
2022/06/28 04:30:37;;;;;;;1.98;1.30;;;17.20;84.50;;;;;;5034194;28;20466;-79
2022/06/28 04:33:03;;;;;;;0.95;0.93;;;17.20;84.20;;;;;;5034532;28;20107;-81
2022/06/28 04:35:28;;;;;;;4.72;1.58;;;17.30;84.30;;;;;;5034413;28;20029;-81
2022/06/28 04:37:54;;;;;;;1.83;1.10;;;17.30;84.10;;;;;;5034380;28;20029;-80
2022/06/28 04:40:19;;;;;;;2.65;1.20;;;17.40;83.60;;;;;;5034442;28;20108;-82
2022/06/28 04:42:45;;;;;;;1.75;0.90;;;17.50;83.40;;;;;;5016339;28;20018;-80
2022/06/28 04:45:11;;;;;;;3.58;1.27;;;17.60;83.30;;;;;;5034072;28;20478;-81
2022/06/28 04:47:37;;;;;;;2.90;1.50;;;17.60;82.90;;;;;;5034389;28;20148;-82
2022/06/28 04:50:02;;;;;;;1.45;1.35;;;17.70;82.80;;;;;;5034082;28;20049;-80
2022/06/28 04:52:28;;;;;;;1.75;1.30;;;17.70;82.70;;;;;;5034106;28;20026;-80
2022/06/28 04:54:54;;;;;;;1.20;1.10;;;17.70;82.30;;;;;;5034479;28;20032;-81
2022/06/28 04:57:19;;;;;;;4.90;1.20;;;17.80;82.00;;;;;;5034041;28;20096;-80
2022/06/28 04:59:45;;;;;;;3.08;1.40;;;17.80;81.60;;;;;;5016023;28;20125;-80
2022/06/28 05:02:10;;;;;;;1.55;1.15;;;17.70;81.60;;;;;;5033987;28;20076;-80
2022/06/28 05:04:36;;;;;;;3.17;1.38;;;17.70;81.30;;;;;;5033797;28;20026;-81
2022/06/28 05:07:01;;;;;;;2.63;1.50;;;17.70;81.60;;;;;;5033923;28;20061;-80
2022/06/28 05:09:27;;;;;;;2.53;1.35;;;17.70;81.90;;;;;;5033628;28;20458;-81
2022/06/28 05:11:52;;;;;;;4.70;1.40;;;17.80;81.90;;;;;;5033409;28;20061;-81
2022/06/28 05:14:18;;;;;;;3.17;1.70;;;17.80;80.70;;;;;;5033537;28;20365;-81
2022/06/28 05:16:45;;;;;;;1.48;1.38;;;17.70;81.00;;;;;;5015761;28;20112;-82
2022/06/28 05:19:11;;;;;;;3.10;1.20;;;17.70;80.90;;;;;;5033434;28;20048;-79
2022/06/28 05:21:37;;;;;;;2.30;1.30;;;17.60;80.60;;;;;;5033221;28;20029;-82
2022/06/28 05:24:03;;;;;;;1.42;1.05;;;17.70;80.80;;;;;;5032951;28;20105;-82
2022/06/28 05:26:28;;;;;;;4.28;1.42;;;17.70;80.60;;;;;;5033170;28;20079;-81
2022/06/28 05:28:54;;;;;;;2.60;1.25;;;17.80;80.30;;;;;;5033174;28;20097;-81
2022/06/28 05:31:20;;;;;;;1.10;1.00;;;17.90;80.10;;;;;;5033566;28;20131;-82
2022/06/28 05:33:45;;;;;;;2.33;1.67;;;17.80;79.20;;;;;;5032739;28;20009;-80
2022/06/28 05:36:13;;;;;;;1.17;1.08;;;17.90;78.80;;;;;;5038637;28;20454;-82
2022/06/28 05:38:38;;;;;;;1.77;0.77;;;17.90;78.40;;;;;;5033884;28;20055;-80
2022/06/28 05:41:04;;;;;;;0.90;0.80;;;17.90;78.50;;;;;;5033156;28;20382;-82
2022/06/28 05:43:29;;;;;;;1.45;0.73;;;17.90;78.60;;;;;;5033094;28;20033;-82
2022/06/28 05:45:55;;;;;;;3.50;1.00;;;18.00;78.40;;;;;;5032890;28;20124;-82
2022/06/28 05:48:20;;;;;;;0.90;0.90;;;18.00;78.90;;;;;;5032916;28;20382;-80
2022/06/28 05:50:47;;;;;;;1.58;0.90;;;18.00;79.40;;;;;;5032732;28;20437;-80
2022/06/28 05:53:14;;;;;;;4.15;1.33;;;18.10;80.00;;;;;;5032816;28;20021;-82
2022/06/28 05:55:39;;;;;;;1.77;1.15;;;18.10;80.40;;;;;;5032807;28;20021;-82
2022/06/28 05:58:05;;;;;;;2.53;1.58;;;18.10;80.70;;;;;;5033072;28;20027;-82
2022/06/28 06:00:33;;;;;;;2.03;1.80;;;18.10;81.10;;;;;;5032541;28;20091;-81
2022/06/28 06:02:59;;;;;;;2.92;1.48;;;18.00;81.30;;;;;;5032892;28;20053;-81
2022/06/28 06:05:25;;;;;;;1.35;1.25;;;18.00;81.90;;;;;;5032453;28;20119;-80
2022/06/28 06:07:50;;;;;;;1.98;1.15;;;17.80;82.50;;;;;;5032594;28;20082;-81
2022/06/28 06:10:16;;;;;;;1.50;1.40;;;17.70;83.10;;;;;;5032574;28;20037;-81
2022/06/28 06:12:41;;;;;;;3.70;1.65;;;17.70;83.40;;;;;;5032659;28;20044;-82
2022/06/28 06:15:07;;;;;;;4.65;2.30;;;17.60;83.60;;;;;;5032593;28;20026;-82
2022/06/28 06:17:33;;;;;;;5.53;1.85;;;17.60;83.80;;;;;;5033039;28;20026;-81
2022/06/28 06:19:59;;;;;;;2.38;1.70;;;17.60;83.30;;;;;;5032662;28;20029;-79
2022/06/28 06:22:24;;;;;;;1.65;1.55;;;17.50;83.20;;;;;;5032679;28;20033;-81
2022/06/28 06:24:50;;;;;;;3.85;1.63;;;17.50;83.20;;;;;;5032480;28;20409;-82
2022/06/28 06:27:16;;;;;;;2.05;1.20;;;17.40;83.50;;;;;;5032380;28;20388;-81
2022/06/28 06:29:41;;;;;;;4.13;1.38;;;17.30;83.20;;;;;;5032344;28;20533;-80
2022/06/28 06:32:07;;;;;;;1.83;1.30;;;17.40;82.90;;;;;;5032526;28;20028;-82
2022/06/28 06:34:33;;;;;;;2.35;1.50;;;17.40;83.00;;;;;;5032407;28;20033;-80
2022/06/28 06:36:58;;;;;;;1.65;1.40;;;17.40;83.00;;;;;;5032362;28;20097;-82
2022/06/28 06:39:24;;;;;;;1.92;1.30;;;17.40;82.40;;;;;;5032252;28;20060;-82
2022/06/28 06:41:49;;;;;;;2.25;2.05;;;17.30;82.30;;;;;;5032241;28;20030;-81
2022/06/28 06:44:15;;;;;;;3.22;1.88;;;17.40;82.80;;;;;;5032226;28;20032;-81
2022/06/28 06:46:40;;;;;;;2.70;1.85;;;17.30;84.40;;;;;;5032253;28;20022;-81
2022/06/28 06:49:06;;;;;;;5.97;2.50;;;17.20;86.70;;;;;;5014431;28;20081;-81
2022/06/28 06:51:32;;;;;;;3.17;2.50;;;17.30;86.60;;;;;;5032321;28;20026;-82
2022/06/28 06:53:58;;;;;;;4.13;2.22;;;17.50;86.00;;;;;;5032071;28;20462;-81
2022/06/28 06:56:24;;;;;;;2.88;2.50;;;17.70;85.50;;;;;;5031963;28;20120;-81
2022/06/28 06:58:50;;;;;;;5.30;2.38;;;17.90;84.70;;;;;;5032121;28;20490;-79
2022/06/28 07:01:15;;;;;;;5.18;2.60;;;18.20;84.90;;;;;;5032013;28;20474;-82
2022/06/28 07:03:44;;;;;;;5.43;2.80;;;18.20;84.20;;;;;;5031822;28;20034;-82
2022/06/28 07:06:12;;;;;;;6.57;2.70;;;18.00;85.00;;;;;;5031944;28;20030;-82
2022/06/28 07:08:38;;;;;;;3.03;2.67;;;18.00;84.60;;;;;;5031968;28;20033;-82
2022/06/28 07:11:04;;;;;;;3.78;2.22;;;18.20;84.40;;;;;;5031698;28;20144;-82
2022/06/28 07:13:29;;;;;;;4.45;2.70;;;18.30;84.30;;;;;;5035555;28;20029;-81
2022/06/28 07:15:55;;;;;;;3.05;2.47;;;18.40;83.20;;;;;;5035762;28;20026;-81
2022/06/28 07:18:21;;;;;;;4.63;2.70;;;18.40;82.30;;;;;;5035934;28;20462;-82
2022/06/28 07:20:47;;;;;;;2.80;2.40;;;18.60;83.10;;;;;;5035516;28;20062;-81
2022/06/28 07:23:12;;;;;;;15.77;2.65;;;18.70;81.50;;;;;;5017569;28;20470;-80
2022/06/28 07:25:38;;;;;;;3.97;3.00;;;18.80;81.00;;;;;;5035342;28;20048;-81
2022/06/28 07:28:03;;;;;;;3.45;2.35;;;18.90;80.60;;;;;;5035383;28;20032;-81
2022/06/28 07:30:29;;;;;;;8.02;2.30;;;19.00;80.50;;;;;;5035157;28;20087;-81
2022/06/28 07:32:55;;;;;;;4.35;2.78;;;19.20;79.80;;;;;;5035270;28;20025;-82
2022/06/28 07:35:24;;;;;;;6.57;2.42;;;19.30;79.60;;;;;;5035275;28;20044;-82
2022/06/28 07:37:50;;;;;;;3.03;2.20;;;19.50;78.90;;;;;;5035486;28;20024;-82
2022/06/28 07:40:16;;;;;;;5.07;1.90;;;19.50;77.50;;;;;;5035294;28;20478;-82
2022/06/28 07:42:41;;;;;;;4.45;2.55;;;19.50;78.70;;;;;;5035237;28;20031;-80
2022/06/28 07:45:07;;;;;;;3.05;2.30;;;19.60;78.50;;;;;;5035417;28;20037;-82
2022/06/28 07:47:33;;;;;;;5.32;2.70;;;19.70;78.10;;;;;;5035158;28;20041;-83
2022/06/28 07:52:43;;;;;;;4.40;2.80;;;19.90;77.40;;;;;;5048620;28;20022;-80
2022/06/28 07:55:10;;;;;;;2.55;2.05;;;19.90;77.10;;;;;;5048516;28;20029;-82
2022/06/28 07:57:36;;;;;;;6.63;2.40;;;19.90;76.40;;;;;;5036200;28;20029;-83
2022/06/28 08:00:04;;;;;;;4.90;2.42;;;19.80;76.10;;;;;;5035206;28;20021;-82
2022/06/28 08:02:30;;;;;;;3.00;2.78;;;19.80;76.50;;;;;;5035035;28;20033;-82
2022/06/28 08:04:55;;;;;;;5.30;2.47;;;19.60;76.70;;;;;;5035024;28;20042;-82
2022/06/28 08:07:21;;;;;;;2.60;2.40;;;19.60;76.90;;;;;;5038996;28;20025;-82
2022/06/28 08:09:47;;;;;;;6.97;2.80;;;19.70;76.90;;;;;;5035304;28;20072;-81
2022/06/28 08:12:13;;;;;;;3.17;2.20;;;19.70;76.80;;;;;;5035167;28;20470;-80
2022/06/28 08:14:39;;;;;;;1.95;1.83;;;19.70;76.60;;;;;;5034985;28;20025;-78
2022/06/28 08:17:05;;;;;;;8.55;7.40;;;19.90;76.50;;;;;;5035041;28;20339;-81
2022/06/28 08:19:31;;;;;;;13.23;9.88;;;20.10;75.50;;;;;;5034476;28;20025;-81
2022/06/28 08:21:56;;;;;;;27.17;18.73;;;20.40;74.40;;;;;;5034288;28;20041;-80
2022/06/28 08:24:22;;;;;;;7.15;5.03;;;20.50;73.20;;;;;;5033078;28;20040;-75
2022/06/28 08:26:48;;;;;;;3.78;2.38;;;20.60;72.90;;;;;;5034185;28;20036;-81
2022/06/28 08:29:15;;;;;;;3.53;2.03;;;20.70;72.80;;;;;;5034021;28;20472;-81
2022/06/28 08:31:41;;;;;;;3.80;2.28;;;20.90;71.90;;;;;;5034114;28;20478;-81
2022/06/28 08:34:07;;;;;;;3.90;2.72;;;20.90;70.50;;;;;;5034135;28;20036;-80
2022/06/28 08:36:33;;;;;;;4.22;2.05;;;21.00;70.50;;;;;;5033886;28;20033;-79
2022/06/28 08:38:59;;;;;;;2.65;1.77;;;21.00;69.70;;;;;;5033756;28;20028;-81
2022/06/28 08:41:32;;;;;;;1.58;1.40;;;21.00;69.80;;;;;;5034001;28;20030;-81
2022/06/28 08:43:58;;;;;;;2.42;1.77;;;21.20;69.80;;;;;;5033923;28;20045;-81
2022/06/28 08:46:24;;;;;;;1.75;1.23;;;21.40;69.50;;;;;;5033821;28;20069;-80
2022/06/28 08:49:03;;;;;;;2.17;1.98;;;21.60;68.90;;;;;;5033618;28;20026;-80
2022/06/28 08:51:32;;;;;;;4.00;2.03;;;21.60;68.00;;;;;;5033785;28;20480;-80
2022/06/28 08:54:01;;;;;;;4.60;1.65;;;21.70;67.60;;;;;;5033946;28;20021;-81
2022/06/28 08:56:27;;;;;;;5.07;1.52;;;21.60;67.30;;;;;;5033784;28;20028;-80
2022/06/28 08:58:55;;;;;;;3.47;1.65;;;21.50;67.50;;;;;;5033781;28;20025;-81
2022/06/28 09:01:21;;;;;;;6.50;4.45;;;21.50;67.40;;;;;;5015748;28;20105;-81
2022/06/28 09:03:51;;;;;;;13.90;10.23;;;21.40;67.50;;;;;;5033539;28;20026;-80
2022/06/28 09:06:16;;;;;;;5.47;2.40;;;21.20;68.50;;;;;;5016279;28;20069;-82
2022/06/28 09:08:42;;;;;;;3.13;1.85;;;21.20;68.80;;;;;;5043409;28;20037;-82
2022/06/28 09:11:07;;;;;;;1.70;1.35;;;21.00;69.00;;;;;;5048746;28;20025;-82
2022/06/28 09:13:37;;;;;;;1.60;1.50;;;21.00;68.80;;;;;;5030569;28;20029;-82
2022/06/28 09:16:04;;;;;;;1.42;1.33;;;21.00;69.10;;;;;;5052568;28;20021;-80
2022/06/28 09:18:36;;;;;;;2.38;2.17;;;21.00;69.40;;;;;;5052645;28;20009;-81
2022/06/28 09:21:05;;;;;;;4.40;3.83;;;21.10;70.10;;;;;;5052941;28;20029;-79
2022/06/28 09:23:34;;;;;;;3.40;2.22;;;21.20;69.90;;;;;;5053186;28;20485;-79
2022/06/28 09:26:06;;;;;;;2.90;2.53;;;21.40;69.60;;;;;;5051562;28;20052;-84
2022/06/28 09:28:34;;;;;;;5.75;2.65;;;21.50;69.10;;;;;;5038500;28;20030;-82
2022/06/28 09:31:19;;;;;;;2.80;2.50;;;21.50;68.60;;;;;;5015790;28;20056;-82
2022/06/28 09:34:06;;;;;;;5.90;2.38;;;21.50;67.90;;;;;;5033376;28;20056;-76
2022/06/28 09:36:37;;;;;;;4.85;2.47;;;21.50;67.90;;;;;;5032924;28;20127;-81
2022/06/28 09:39:17;;;;;;;4.03;2.47;;;21.50;67.70;;;;;;5032932;28;20029;-80
2022/06/28 09:41:49;;;;;;;4.07;2.20;;;21.60;67.70;;;;;;5014942;28;20528;-79
2022/06/28 09:44:17;;;;;;;3.90;2.50;;;21.60;68.30;;;;;;5032575;28;20374;-78
2022/06/28 09:46:44;;;;;;;4.95;3.50;;;21.60;67.90;;;;;;5032813;28;20476;-78
2022/06/28 09:49:10;;;;;;;6.93;3.85;;;21.60;67.10;;;;;;5032711;28;20037;-79
2022/06/28 09:51:37;;;;;;;5.15;2.88;;;21.50;67.70;;;;;;5032879;28;20033;-79
2022/06/28 09:54:08;;;;;;;3.10;2.42;;;21.60;68.20;;;;;;5032690;28;20025;-80
2022/06/28 09:56:43;;;;;;;5.97;2.75;;;21.70;67.60;;;;;;5032710;28;20028;-80
2022/06/28 09:59:10;;;;;;;4.55;3.10;;;21.80;67.10;;;;;;5032474;28;20462;-82
2022/06/28 10:01:37;;;;;;;4.72;3.40;;;22.00;67.00;;;;;;5032389;28;20033;-81
2022/06/28 10:04:03;;;;;;;5.20;2.95;;;22.00;65.00;;;;;;5032225;28;20498;-81
2022/06/28 10:06:29;;;;;;;3.60;3.08;;;22.20;64.30;;;;;;5032537;28;20038;-81
2022/06/28 10:08:55;;;;;;;3.53;3.22;;;22.50;65.00;;;;;;5014329;28;20387;-80
2022/06/28 10:11:21;;;;;;;4.20;3.03;;;22.30;66.40;;;;;;5032268;28;20034;-80
2022/06/28 10:16:54;;;;;;;3.65;3.30;;;22.50;64.30;;;;;;5032129;28;20087;-81
2022/06/28 10:19:21;;;;;;;4.88;3.63;;;22.10;64.10;;;;;;5031605;28;20124;-80
2022/06/28 10:21:53;;;;;;;4.80;3.67;;;21.60;66.10;;;;;;5032233;28;20017;-80
2022/06/28 10:24:20;;;;;;;4.30;3.45;;;21.30;67.20;;;;;;5031844;28;20025;-80
2022/06/28 10:27:06;;;;;;;5.65;3.00;;;21.40;68.40;;;;;;5014196;28;20030;-81
2022/06/28 10:29:33;;;;;;;3.67;2.80;;;21.50;66.70;;;;;;5031862;28;20030;-81
2022/06/28 10:31:58;;;;;;;3.58;3.17;;;21.40;66.60;;;;;;5031688;28;20378;-81
2022/06/28 10:34:47;;;;;;;3.38;2.40;;;21.40;67.00;;;;;;5032096;28;20064;-81
2022/06/28 10:37:13;;;;;;;3.55;2.10;;;21.50;67.40;;;;;;5031877;28;20093;-82
2022/06/28 10:39:38;;;;;;;6.63;3.17;;;21.70;67.90;;;;;;5014434;28;20430;-83
2022/06/28 10:42:13;;;;;;;3.20;2.65;;;21.80;65.70;;;;;;5032180;28;20021;-81
2022/06/28 10:44:38;;;;;;;2.50;2.30;;;22.00;65.70;;;;;;5032017;28;20029;-83
2022/06/28 10:47:04;;;;;;;2.38;2.17;;;22.10;65.80;;;;;;5033375;28;20104;-83
2022/06/28 10:49:44;;;;;;;6.47;2.53;;;22.20;64.90;;;;;;5035503;28;20437;-82
2022/06/28 10:52:32;;;;;;;4.22;2.60;;;22.30;64.30;;;;;;5035856;28;20136;-82
2022/06/28 10:54:57;;;;;;;5.15;3.00;;;22.40;63.80;;;;;;5035648;28;20068;-81
2022/06/28 10:57:23;;;;;;;6.45;2.50;;;22.10;63.90;;;;;;5035570;28;20096;-80
2022/06/28 10:59:51;;;;;;;8.32;2.90;;;21.80;64.30;;;;;;5035737;28;20378;-81
2022/06/28 11:02:18;;;;;;;7.15;3.22;;;21.60;65.60;;;;;;5035876;28;20013;-80
2022/06/28 11:04:45;;;;;;;4.88;2.80;;;21.20;66.50;;;;;;5035563;28;20032;-81
2022/06/28 11:07:19;;;;;;;3.78;3.15;;;21.10;67.80;;;;;;5035646;28;20033;-82
2022/06/28 11:09:52;;;;;;;4.75;2.55;;;21.00;68.70;;;;;;5017975;28;20112;-82
2022/06/28 11:12:19;;;;;;;3.10;2.50;;;21.00;68.90;;;;;;5035658;28;20125;-82
2022/06/28 11:14:53;;;;;;;3.88;2.50;;;20.80;69.30;;;;;;5035431;28;20030;-81
2022/06/28 11:17:37;;;;;;;2.60;2.40;;;20.80;69.60;;;;;;5035486;28;20104;-81
2022/06/28 11:20:03;;;;;;;4.15;2.50;;;20.90;69.60;;;;;;5035511;28;20021;-83
2022/06/28 11:22:36;;;;;;;2.47;2.28;;;20.90;70.20;;;;;;5034936;28;20075;-82
2022/06/28 11:25:05;;;;;;;4.05;2.80;;;20.90;69.70;;;;;;5035134;28;20025;-75
2022/06/28 11:27:32;;;;;;;2.95;2.40;;;21.00;69.50;;;;;;5035048;28;20095;-76
2022/06/28 11:30:02;;;;;;;2.88;2.50;;;21.10;69.30;;;;;;5035355;28;20021;-83
2022/06/28 11:32:33;;;;;;;3.58;2.60;;;21.00;68.80;;;;;;5035333;28;20128;-80
2022/06/28 11:35:06;;;;;;;3.78;2.22;;;21.00;69.20;;;;;;5035060;28;20533;-81
2022/06/28 11:37:46;;;;;;;4.25;2.30;;;21.10;69.30;;;;;;5035105;28;20033;-82
2022/06/28 11:40:12;;;;;;;4.45;2.30;;;21.20;68.90;;;;;;5035058;28;20528;-81
2022/06/28 11:42:37;;;;;;;3.30;2.20;;;21.30;68.10;;;;;;5035548;28;20017;-82
2022/06/28 11:45:03;;;;;;;4.00;2.65;;;21.50;68.00;;;;;;5036017;28;20025;-82
2022/06/28 11:47:29;;;;;;;3.15;2.67;;;21.60;67.40;;;;;;5035821;28;20034;-81
2022/06/28 11:50:12;;;;;;;8.05;2.50;;;21.80;67.40;;;;;;5035674;28;20418;-79
2022/06/28 11:52:54;;;;;;;3.22;2.60;;;22.00;66.20;;;;;;5021315;28;20025;-80
2022/06/28 11:55:40;;;;;;;6.30;2.50;;;22.10;65.40;;;;;;5035720;28;20030;-82
2022/06/28 11:58:17;;;;;;;4.65;2.40;;;22.40;65.20;;;;;;5035958;28;20048;-80
2022/06/28 12:01:06;;;;;;;4.50;2.30;;;22.70;64.00;;;;;;5035165;28;20025;-81
2022/06/28 12:03:33;;;;;;;2.25;2.08;;;22.80;63.50;;;;;;5017164;28;20021;-78
2022/06/28 12:06:01;;;;;;;3.33;2.08;;;22.80;63.40;;;;;;5034704;28;20339;-79
2022/06/28 12:08:51;;;;;;;2.13;1.70;;;23.00;63.00;;;;;;5034819;28;20049;-77
2022/06/28 12:11:36;;;;;;;6.68;2.50;;;23.10;62.90;;;;;;5034750;28;20053;-79
2022/06/28 12:14:09;;;;;;;2.40;2.20;;;23.20;61.80;;;;;;5034607;28;20565;-81
2022/06/28 12:16:49;;;;;;;2.40;2.20;;;23.30;61.60;;;;;;5034407;28;20029;-79
2022/06/28 12:19:21;;;;;;;3.22;2.15;;;23.20;60.30;;;;;;5034483;28;20029;-77
2022/06/28 12:21:58;;;;;;;4.35;2.35;;;23.20;61.10;;;;;;5034521;28;20028;-78
2022/06/28 12:24:45;;;;;;;5.18;2.30;;;22.80;60.80;;;;;;5034594;28;20024;-80
2022/06/28 12:27:16;;;;;;;3.95;2.03;;;22.40;62.40;;;;;;5034307;28;20112;-80
2022/06/28 12:29:42;;;;;;;2.42;2.22;;;22.40;63.30;;;;;;5034185;28;20014;-79
2022/06/28 12:32:08;;;;;;;4.55;2.25;;;22.40;63.70;;;;;;5034037;28;20063;-80
2022/06/28 12:34:33;;;;;;;3.55;2.00;;;22.40;64.40;;;;;;5034259;28;20105;-81
2022/06/28 12:36:59;;;;;;;4.63;1.90;;;22.50;64.50;;;;;;5034257;28;20100;-80
2022/06/28 12:39:25;;;;;;;3.35;1.85;;;22.50;64.10;;;;;;5034396;28;20029;-80
2022/06/28 12:41:51;;;;;;;4.28;2.20;;;22.50;64.20;;;;;;5034300;28;20025;-78
2022/06/28 12:44:17;;;;;;;1.80;1.70;;;22.40;64.40;;;;;;5034095;28;20028;-80
2022/06/28 12:46:44;;;;;;;2.42;2.05;;;22.30;64.60;;;;;;5034258;28;20152;-79
2022/06/28 12:49:09;;;;;;;2.55;2.00;;;22.30;64.80;;;;;;5033731;28;20025;-79
2022/06/28 12:51:36;;;;;;;2.25;1.90;;;22.20;63.90;;;;;;5034059;28;20029;-80
2022/06/28 12:54:01;;;;;;;2.92;2.58;;;22.00;64.40;;;;;;5034431;28;20052;-78
2022/06/28 12:56:27;;;;;;;3.05;1.92;;;22.00;64.20;;;;;;5033878;28;20063;-77
2022/06/28 12:58:56;;;;;;;2.03;1.60;;;21.80;65.10;;;;;;5033672;28;20068;-81
2022/06/28 13:01:23;;;;;;;1.95;1.70;;;21.80;65.30;;;;;;5033911;28;20108;-81